createdAt,value
2023-01-08T09:55:15.864Z,95996.88
2023-01-08T09:58:03.399Z,95996.06
2023-01-08T10:00:49.667Z,95991.28
2023-01-08T10:03:44.529Z,95962.00
2023-01-08T10:06:31.353Z,95963.81
2023-01-08T10:09:17.570Z,95956.94
2023-01-08T10:12:05.091Z,95964.00
2023-01-08T10:14:52.550Z,95963.00
2023-01-08T10:17:49.468Z,95966.31
2023-01-08T10:20:35.442Z,95957.31
2023-01-08T10:23:25.650Z,95963.97
2023-01-08T10:26:11.747Z,95959.78
2023-01-08T10:29:19.817Z,95948.16
2023-01-08T10:32:27.484Z,95950.47
2023-01-08T10:35:17.277Z,95942.00
2023-01-08T10:38:03.788Z,95919.44
2023-01-08T10:40:50.052Z,95943.28
2023-01-08T10:44:01.455Z,95921.66
2023-01-08T10:46:50.920Z,95932.47
2023-01-08T10:49:42.084Z,95908.84
2023-01-08T10:52:29.546Z,95929.47
2023-01-08T10:55:23.126Z,95913.06
2023-01-08T10:58:09.068Z,95925.00
2023-01-08T11:00:55.322Z,95898.41
2023-01-08T11:03:42.284Z,95914.63
2023-01-08T11:06:33.478Z,95904.88
2023-01-08T11:09:22.963Z,95906.91
2023-01-08T11:12:40.776Z,95890.66
2023-01-08T11:15:41.965Z,95887.88
2023-01-08T11:18:28.480Z,95883.09
2023-01-08T11:21:24.918Z,95879.13
2023-01-08T11:24:24.541Z,95877.16
2023-01-08T11:27:16.642Z,95849.88
2023-01-08T11:30:07.556Z,95866.22
2023-01-08T11:33:01.261Z,95843.97
2023-01-08T11:35:50.798Z,95864.81
2023-01-08T11:38:36.780Z,95854.00
2023-01-08T11:41:33.020Z,95844.03
2023-01-08T11:44:50.186Z,95844.03
2023-01-08T11:47:36.345Z,95833.59
2023-01-08T11:50:29.395Z,95828.78
2023-01-08T11:53:21.582Z,95814.47
2023-01-08T11:56:21.445Z,95812.31
2023-01-08T11:59:25.529Z,95810.50
2023-01-08T12:02:51.666Z,95801.31
2023-01-08T12:05:40.310Z,95801.38
2023-01-08T12:08:56.557Z,95799.34
2023-01-08T12:11:59.732Z,95791.69
2023-01-08T12:15:04.444Z,95784.88
2023-01-08T12:18:41.016Z,95779.03
2023-01-08T12:21:33.113Z,95769.84
2023-01-08T12:24:39.827Z,95772.31
2023-01-08T12:27:57.434Z,95771.50
2023-01-08T12:30:59.806Z,95759.94
2023-01-08T12:33:54.117Z,95744.13
2023-01-08T12:36:43.029Z,95745.59
2023-01-08T12:39:34.012Z,95737.41
2023-01-08T12:42:24.631Z,95747.41
2023-01-08T12:45:30.255Z,95738.53
2023-01-08T12:48:18.713Z,95761.66
2023-01-08T12:51:25.090Z,95739.31
2023-01-08T12:54:33.941Z,95756.41
2023-01-08T12:57:35.066Z,95742.78
2023-01-08T13:00:29.361Z,95756.88
2023-01-08T13:03:21.730Z,95739.31
2023-01-08T13:06:13.899Z,95734.16
2023-01-08T13:09:01.743Z,95736.38
2023-01-08T13:11:51.606Z,95739.31
2023-01-08T13:14:42.008Z,95742.38
2023-01-08T13:17:28.445Z,95716.59
2023-01-08T13:20:20.368Z,95721.97
2023-01-08T13:23:06.951Z,95711.69
2023-01-08T13:25:55.135Z,95685.34
2023-01-08T13:28:45.095Z,95694.41
2023-01-08T13:31:39.554Z,95681.44
2023-01-08T13:34:45.685Z,95686.94
2023-01-08T13:37:31.749Z,95687.38
2023-01-08T13:40:39.340Z,95688.78
2023-01-08T13:43:30.714Z,95683.56
2023-01-08T13:46:19.073Z,95669.56
2023-01-08T13:49:07.238Z,95684.75
2023-01-08T13:51:53.160Z,95684.31
2023-01-08T13:54:40.464Z,95685.53
2023-01-08T13:57:34.526Z,95675.41
2023-01-08T14:00:30.447Z,95685.47
2023-01-08T14:03:22.450Z,95669.94
2023-01-08T14:06:18.533Z,95701.31
2023-01-08T14:09:05.401Z,95709.09
2023-01-08T14:11:58.412Z,95697.28
2023-01-08T14:14:51.633Z,95701.38
2023-01-08T14:17:37.680Z,95689.97
2023-01-08T14:20:35.280Z,95707.44
2023-01-08T14:23:27.232Z,95709.19
2023-01-08T14:26:35.607Z,95693.97
2023-01-08T14:29:24.228Z,95709.31
2023-01-08T14:32:19.851Z,95690.66
2023-01-08T14:35:09.344Z,95705.72
2023-01-08T14:37:55.543Z,95694.91
2023-01-08T14:40:45.109Z,95699.78
2023-01-08T14:43:39.753Z,95694.72
2023-01-08T14:46:28.721Z,95693.56
2023-01-08T14:49:22.746Z,95703.59
2023-01-08T14:52:11.047Z,95701.41
2023-01-08T14:55:00.187Z,95697.19
2023-01-08T14:57:47.982Z,95690.19
2023-01-08T15:00:33.667Z,95705.38
2023-01-08T15:03:39.741Z,95703.00
2023-01-08T15:06:28.639Z,95704.34
2023-01-08T15:09:29.530Z,95695.06
2023-01-08T15:12:24.733Z,95686.25
2023-01-08T15:15:23.598Z,95692.72
2023-01-08T15:18:12.032Z,95679.66
2023-01-08T15:20:58.276Z,95680.59
2023-01-08T15:23:48.755Z,95696.22
2023-01-08T15:26:34.756Z,95691.06
2023-01-08T15:29:33.911Z,95691.78
2023-01-08T15:32:23.887Z,95702.22
2023-01-08T15:35:17.491Z,95705.38
2023-01-08T15:38:03.249Z,95690.78
2023-01-08T15:40:49.680Z,95699.75
2023-01-08T15:43:35.561Z,95691.72
2023-01-08T15:46:21.532Z,95695.09
2023-01-08T15:49:07.557Z,95690.19
2023-01-08T15:51:53.389Z,95699.59
2023-01-08T15:54:39.344Z,95697.13
2023-01-08T15:57:25.653Z,95695.19
2023-01-08T16:00:19.967Z,95692.63
2023-01-08T16:03:07.303Z,95698.66
2023-01-08T16:05:53.012Z,95685.03
2023-01-08T16:08:39.380Z,95669.16
2023-01-08T16:11:25.519Z,95692.28
2023-01-08T16:14:11.804Z,95694.03
2023-01-08T16:16:57.672Z,95690.38
2023-01-08T16:19:43.473Z,95706.09
2023-01-08T16:22:29.247Z,95698.66
2023-01-08T16:25:15.169Z,95708.88
2023-01-08T16:28:02.257Z,95710.38
2023-01-08T16:30:48.492Z,95678.78
2023-01-08T16:33:34.527Z,95715.81
2023-01-08T16:36:20.347Z,95689.22
2023-01-08T16:39:06.870Z,95721.19
2023-01-08T16:41:52.733Z,95722.53
2023-01-08T16:44:39.021Z,95720.38
2023-01-08T16:47:25.165Z,95723.41
2023-01-08T16:50:11.912Z,95734.09
2023-01-08T16:52:58.083Z,95707.28
2023-01-08T16:55:43.770Z,95721.97
2023-01-08T16:58:30.043Z,95739.44
2023-01-08T17:01:16.439Z,95722.81
2023-01-08T17:04:02.148Z,95736.13
2023-01-08T17:06:48.043Z,95735.00
2023-01-08T17:09:34.155Z,95746.69
2023-01-08T17:12:22.560Z,95746.34
2023-01-08T17:15:09.228Z,95741.03
2023-01-08T17:17:55.450Z,95750.34
2023-01-08T17:20:41.340Z,95742.72
2023-01-08T17:23:28.852Z,95742.72
2023-01-08T17:26:17.651Z,95743.38
2023-01-08T17:29:03.931Z,95750.50
2023-01-08T17:31:50.614Z,95753.84
2023-01-08T17:34:36.817Z,95753.50
2023-01-08T17:37:22.534Z,95749.69
2023-01-08T17:40:09.202Z,95751.84
2023-01-08T17:42:55.652Z,95762.50
2023-01-08T17:45:41.603Z,95748.69
2023-01-08T17:48:27.513Z,95766.34
2023-01-08T17:51:14.479Z,95773.31
2023-01-08T17:54:01.134Z,95768.16
2023-01-08T17:56:48.966Z,95778.16
2023-01-08T17:59:35.477Z,95763.81
2023-01-08T18:02:21.671Z,95781.78
2023-01-08T18:05:07.915Z,95777.47
2023-01-08T18:07:53.929Z,95785.78
2023-01-08T18:10:40.145Z,95797.91
2023-01-08T18:13:26.411Z,95786.75
2023-01-08T18:16:13.955Z,95788.91
2023-01-08T18:19:00.403Z,95764.72
2023-01-08T18:21:49.707Z,95808.03
2023-01-08T18:24:35.845Z,95779.69
2023-01-08T18:27:21.635Z,95801.34
2023-01-08T18:30:08.432Z,95803.16
2023-01-08T18:32:54.546Z,95777.19
2023-01-08T18:35:40.489Z,95801.97
2023-01-08T18:38:26.437Z,95791.78
2023-01-08T18:41:34.226Z,95799.66
2023-01-08T18:44:20.423Z,95788.13
2023-01-08T18:47:06.505Z,95796.94
2023-01-08T18:49:54.015Z,95787.91
2023-01-08T18:52:42.007Z,95801.56
2023-01-08T18:55:27.848Z,95799.06
2023-01-08T18:58:13.994Z,95798.84
2023-01-08T19:01:06.408Z,95805.34
2023-01-08T19:03:52.280Z,95780.28
2023-01-08T19:06:38.128Z,95801.75
2023-01-08T19:09:24.212Z,95805.94
2023-01-08T19:12:09.965Z,95815.41
2023-01-08T19:14:56.031Z,95819.34
2023-01-08T19:17:42.031Z,95837.16
2023-01-08T19:20:27.972Z,95827.81
2023-01-08T19:23:15.036Z,95808.94
2023-01-08T19:26:05.483Z,95809.09
2023-01-08T19:28:51.306Z,95828.06
2023-01-08T19:31:37.276Z,95828.72
2023-01-08T19:34:23.215Z,95824.53
2023-01-08T19:37:09.666Z,95822.16
2023-01-08T19:40:00.462Z,95827.34
2023-01-08T19:43:04.977Z,95824.63
2023-01-08T19:45:51.376Z,95819.47
2023-01-08T19:48:37.925Z,95816.44
2023-01-08T19:51:24.960Z,95820.06
2023-01-08T19:54:11.625Z,95822.59
2023-01-08T19:56:57.884Z,95824.06
2023-01-08T19:59:43.959Z,95835.66
2023-01-08T20:02:29.739Z,95824.16
2023-01-08T20:05:15.500Z,95820.94
2023-01-08T20:08:01.587Z,95816.22
2023-01-08T20:10:47.486Z,95835.06
2023-01-08T20:13:36.216Z,95832.88
2023-01-08T20:16:24.213Z,95822.03
2023-01-08T20:19:10.224Z,95836.81
2023-01-08T20:21:57.413Z,95837.09
2023-01-08T20:24:43.757Z,95842.97
2023-01-08T20:27:29.789Z,95836.06
2023-01-08T20:30:15.802Z,95841.91
2023-01-08T20:33:01.891Z,95849.63
2023-01-08T20:35:47.826Z,95852.28
2023-01-08T20:38:33.607Z,95839.63
2023-01-08T20:41:19.748Z,95834.78
2023-01-08T20:44:09.461Z,95845.38
2023-01-08T20:46:55.391Z,95842.34
2023-01-08T20:49:41.590Z,95829.53
2023-01-08T20:52:30.032Z,95850.53
2023-01-08T20:55:17.512Z,95836.00
2023-01-08T20:58:04.139Z,95834.78
2023-01-08T21:00:50.432Z,95850.88
2023-01-08T21:03:37.173Z,95834.63
2023-01-08T21:06:25.484Z,95851.91
2023-01-08T21:09:12.112Z,95828.38
2023-01-08T21:11:58.008Z,95839.22
2023-01-08T21:14:43.979Z,95842.59
2023-01-08T21:17:29.950Z,95836.06
2023-01-08T21:20:16.278Z,95837.56
2023-01-08T21:23:02.577Z,95841.38
2023-01-08T21:25:49.690Z,95835.66
2023-01-08T21:28:36.706Z,95835.34
2023-01-08T21:31:28.540Z,95833.69
2023-01-08T21:34:14.565Z,95838.16
2023-01-08T21:37:02.657Z,95833.69
2023-01-08T21:39:48.907Z,95839.00
2023-01-08T21:42:53.279Z,95833.31
2023-01-08T21:45:39.392Z,95832.59
2023-01-08T21:48:25.087Z,95814.78
2023-01-08T21:51:29.696Z,95822.28
2023-01-08T21:54:16.109Z,95806.56
2023-01-08T21:57:02.034Z,95823.72
2023-01-08T21:59:51.440Z,95818.88
2023-01-08T22:02:37.340Z,95819.81
2023-01-08T22:05:23.303Z,95819.44
2023-01-08T22:08:09.514Z,95816.09
2023-01-08T22:10:55.544Z,95818.09
2023-01-08T22:13:41.779Z,95815.88
2023-01-08T22:16:27.721Z,95809.69
2023-01-08T22:19:13.800Z,95788.69
2023-01-08T22:21:59.563Z,95801.91
2023-01-08T22:24:45.383Z,95809.31
2023-01-08T22:27:31.569Z,95813.34
2023-01-08T22:30:17.867Z,95807.38
2023-01-08T22:33:04.126Z,95797.19
2023-01-08T22:35:50.335Z,95805.81
2023-01-08T22:38:36.909Z,95753.53
2023-01-08T22:41:24.396Z,95820.91
2023-01-08T22:44:13.812Z,95801.13
2023-01-08T22:47:02.615Z,95801.94
2023-01-08T22:49:49.256Z,95812.41
2023-01-08T22:52:35.343Z,95788.50
2023-01-08T22:55:21.185Z,95801.41
2023-01-08T22:58:06.867Z,95793.38
2023-01-08T23:00:52.773Z,95794.59
2023-01-08T23:03:42.940Z,95797.38
2023-01-08T23:06:30.734Z,95797.69
2023-01-08T23:09:17.036Z,95793.78
2023-01-08T23:12:02.956Z,95786.81
2023-01-08T23:14:48.687Z,95777.19
2023-01-08T23:17:44.510Z,95770.22
2023-01-08T23:20:39.094Z,95757.13
2023-01-08T23:23:24.830Z,95768.84
2023-01-08T23:26:13.983Z,95771.06
2023-01-08T23:29:00.700Z,95772.31
2023-01-08T23:31:46.799Z,95773.72
2023-01-08T23:34:32.994Z,95760.06
2023-01-08T23:37:19.452Z,95748.81
2023-01-08T23:40:05.564Z,95771.50
2023-01-08T23:42:51.382Z,95764.13
2023-01-08T23:45:38.872Z,95778.06
2023-01-08T23:48:24.511Z,95755.38
2023-01-08T23:51:10.395Z,95750.63
2023-01-08T23:53:56.551Z,95751.16
2023-01-08T23:56:43.871Z,95756.47
2023-01-08T23:59:29.979Z,95742.16
